Aeroporto :
LOGIN :

Iscrizione | Disclaimer

   EN    FR    IT 

 










Sommario :    VFR   VFR Marginale   IFR   IFR Intensivo   IFR Molto Intensivo
Visibilità : 
Base nubi : 
>= 8 km
>= 3000ft
5 / 8 km
1000 / 3000 ft
1500m / 5 km
500 / 1000 ft
800 / 1500m
200 / 500 ft
< 800m
< 200 ft
Simboli :   Temporali  Nebbia  Neve Forte  Precipitazioni Forti  Vento > 20 kt
SIGMETs :   Varie  Temporali  Ghiacco  Turbolenza  Onda orograficha  Ceneri Vulcaniche






- Altitudine del aeroporto : 72 ft
- Codice IATA : UDE


EHVK - Volkel Airbase

ULTIMO METAR :
  • 200625Z AUTO 24002KT 0450 FZFG OVC000 M01/M02 Q1047 RED

METARs OBSOLETI :
  • 200555Z AUTO 24002KT 0550 FZFG OVC000 M01/M01 Q1047 RED
  • 200525Z AUTO 23002KT 0300 FZFG OVC000 M01/M01 Q1047 RED
  • 200455Z AUTO 28001KT 0300 FZFG OVC000 M01/M01 Q1047 RED
  • 200425Z AUTO 20001KT 0200 FZFG OVC000 M01/M01 Q1047 RED
  • 200355Z AUTO 33001KT 0350 FZFG OVC000 M01/M01 Q1047 RED

TAF TAF EHVK
Valido dal 20 a 06 ore il 20 a 18 ore UTC


200538Z 2006/2018 VRB02KT 0300 FG FZFG
BECMG 2009/2012 20004KT 7000 NSW
PROB30
TEMPO 2009/2013 4000 BR BKN005



MetMap, La meteo Aeronautica in un colpo d'occhio ! - Copyright ORBIFLY Dicembre 2007 - Disclaimer

ORBIFLY MET'MAP TEAM :

Programmazione e sviluppo : Alexandra Zaïnal
Concezione : Baudouin d'Aumeries
Aiuto per la programmazione : Marc-Olivier Méhu
Supporto tecnico e logistico : Manuel Goepfert
Aiuto per la traduzione : Arnaldo La Scala

Contatto : metmap@orbifly.com




FONTI E CREDITI :

   NOAA